Time;durP1;ratioP1;P1;durP2;ratioP2;P2;SDS_P1;SDS_P2;PMS_P1;PMS_P2;Temp;Humidity;BMP_temperature;BMP_pressure;BME280_temperature;BME280_humidity;BME280_pressure;Samples;Min_cycle;Max_cycle;Signal;HPM_P1;HPM_P2
2022/01/29 00:01:53;;;;;;;13.60;3.17;;;3.80;99.90;;;;;;5056259;28;20170;-64
2022/01/29 00:04:19;;;;;;;9.17;3.00;;;3.80;99.90;;;;;;5051947;28;20187;-63
2022/01/29 00:06:44;;;;;;;14.17;2.37;;;3.90;99.90;;;;;;5052107;28;20216;-63
2022/01/29 00:09:14;;;;;;;10.00;2.53;;;3.80;99.90;;;;;;5057134;28;20157;-63
2022/01/29 00:11:41;;;;;;;18.03;3.03;;;3.80;99.90;;;;;;5047677;28;20247;-65
2022/01/29 00:14:07;;;;;;;13.93;2.53;;;3.80;99.90;;;;;;5035110;28;20180;-63
2022/01/29 00:16:33;;;;;;;12.80;3.23;;;3.80;99.90;;;;;;5035738;28;20159;-63
2022/01/29 00:18:58;;;;;;;7.07;2.40;;;3.70;99.90;;;;;;5035781;28;20601;-63
2022/01/29 00:21:24;;;;;;;10.90;2.73;;;3.70;99.90;;;;;;5035876;28;20362;-63
2022/01/29 00:23:50;;;;;;;6.57;2.53;;;3.70;99.90;;;;;;5029609;28;20592;-66
2022/01/29 00:26:20;;;;;;;7.47;2.13;;;3.60;99.90;;;;;;5052513;28;20174;-63
2022/01/29 00:28:45;;;;;;;9.63;2.87;;;3.60;99.90;;;;;;5042852;28;20261;-64
2022/01/29 00:31:11;;;;;;;9.67;2.70;;;3.60;99.90;;;;;;5055860;28;20315;-64
2022/01/29 00:33:40;;;;;;;12.70;3.10;;;3.60;99.90;;;;;;5055081;28;20176;-64
2022/01/29 00:36:06;;;;;;;11.13;3.40;;;3.50;99.90;;;;;;5038574;28;20190;-62
2022/01/29 00:38:33;;;;;;;13.37;2.97;;;3.70;99.90;;;;;;5044675;28;20701;-62
2022/01/29 00:40:58;;;;;;;11.80;3.40;;;3.60;99.90;;;;;;5055463;28;20208;-62
2022/01/29 00:43:24;;;;;;;14.77;3.53;;;3.60;99.90;;;;;;5042316;28;20221;-63
2022/01/29 00:45:50;;;;;;;28.10;4.60;;;3.70;99.90;;;;;;5034548;28;20502;-63
2022/01/29 00:48:16;;;;;;;8.33;2.30;;;3.60;99.90;;;;;;5035467;28;20209;-63
2022/01/29 00:50:41;;;;;;;14.33;3.30;;;3.70;99.90;;;;;;5033052;28;20271;-63
2022/01/29 00:53:07;;;;;;;22.40;4.30;;;3.60;99.90;;;;;;5035571;28;20527;-65
2022/01/29 00:55:33;;;;;;;18.80;4.40;;;3.70;99.90;;;;;;5035557;28;20193;-63
2022/01/29 00:57:58;;;;;;;12.00;2.83;;;3.70;99.90;;;;;;5035623;28;20197;-64
2022/01/29 01:00:24;;;;;;;20.57;4.50;;;3.70;99.90;;;;;;5035096;28;20681;-63
2022/01/29 01:02:49;;;;;;;8.27;2.80;;;3.70;99.90;;;;;;5045569;28;20193;-63
2022/01/29 01:05:15;;;;;;;12.73;3.17;;;3.70;99.90;;;;;;5054983;28;20188;-63
2022/01/29 01:07:41;;;;;;;14.77;3.90;;;3.70;99.90;;;;;;5058694;28;20599;-62
2022/01/29 01:10:08;;;;;;;13.63;3.57;;;3.80;99.90;;;;;;5054592;28;20600;-63
2022/01/29 01:12:34;;;;;;;11.37;2.97;;;3.70;99.90;;;;;;5054924;28;20302;-62
2022/01/29 01:15:01;;;;;;;9.23;2.63;;;3.70;99.90;;;;;;5052408;28;20647;-63
2022/01/29 01:17:26;;;;;;;14.27;3.63;;;3.70;99.90;;;;;;5054587;28;20168;-63
2022/01/29 01:19:52;;;;;;;7.23;2.63;;;3.80;99.90;;;;;;5030535;28;20187;-64
2022/01/29 01:22:18;;;;;;;16.57;3.20;;;3.80;99.90;;;;;;5033438;28;20185;-62
2022/01/29 01:24:45;;;;;;;7.07;2.17;;;3.70;99.90;;;;;;5034969;28;20566;-62
2022/01/29 01:27:10;;;;;;;8.37;2.97;;;3.70;99.90;;;;;;5034561;28;20197;-64
2022/01/29 01:29:36;;;;;;;10.17;2.37;;;3.70;99.90;;;;;;5045322;28;20188;-63
2022/01/29 01:32:02;;;;;;;8.10;2.80;;;3.80;99.90;;;;;;5044521;28;20245;-64
2022/01/29 01:34:32;;;;;;;5.77;2.03;;;3.80;99.90;;;;;;5041081;28;20176;-64
2022/01/29 01:37:04;;;;;;;11.63;3.13;;;3.80;99.90;;;;;;5049469;28;20245;-64
2022/01/29 01:39:33;;;;;;;13.57;3.80;;;3.90;99.90;;;;;;5036688;28;20204;-62
2022/01/29 01:42:06;;;;;;;15.23;3.20;;;3.90;99.90;;;;;;5031301;28;20190;-64
2022/01/29 01:44:46;;;;;;;8.27;2.33;;;3.80;99.90;;;;;;5034891;28;20242;-62
2022/01/29 01:47:13;;;;;;;6.93;2.77;;;3.90;99.90;;;;;;5034744;28;20203;-63
2022/01/29 01:49:39;;;;;;;14.87;3.10;;;3.80;99.90;;;;;;5030626;28;20189;-63
2022/01/29 01:52:08;;;;;;;12.90;2.90;;;3.90;99.90;;;;;;5033591;28;20500;-62
2022/01/29 01:54:34;;;;;;;8.60;2.70;;;3.90;99.90;;;;;;5030648;28;20272;-63
2022/01/29 01:57:00;;;;;;;13.33;3.47;;;3.90;99.90;;;;;;5034200;28;20207;-62
2022/01/29 01:59:27;;;;;;;4.33;1.90;;;3.90;99.90;;;;;;5027265;28;20246;-63
2022/01/29 02:01:53;;;;;;;14.23;3.30;;;3.90;99.90;;;;;;5030525;28;20183;-64
2022/01/29 02:04:19;;;;;;;11.10;2.83;;;3.90;99.90;;;;;;5034548;28;20164;-64
2022/01/29 02:06:46;;;;;;;13.73;2.50;;;4.00;99.90;;;;;;5038686;28;20577;-63
2022/01/29 02:09:14;;;;;;;4.80;1.40;;;4.10;99.90;;;;;;5066512;28;20622;-64
2022/01/29 02:11:53;;;;;;;6.67;2.23;;;4.10;99.90;;;;;;5039452;28;20203;-63
2022/01/29 02:14:20;;;;;;;11.10;2.13;;;4.10;99.90;;;;;;5033660;28;20172;-63
2022/01/29 02:16:45;;;;;;;11.60;3.03;;;4.00;99.90;;;;;;5034204;28;20162;-62
2022/01/29 02:19:11;;;;;;;5.53;2.20;;;4.00;99.90;;;;;;5034187;28;20492;-64
2022/01/29 02:21:38;;;;;;;8.63;2.67;;;4.10;99.90;;;;;;5033842;28;20568;-64
2022/01/29 02:24:04;;;;;;;19.23;2.90;;;4.00;99.90;;;;;;5038946;28;20191;-63
2022/01/29 02:26:30;;;;;;;8.20;2.77;;;4.10;99.90;;;;;;5053716;28;20285;-62
2022/01/29 02:28:56;;;;;;;13.80;2.50;;;4.10;99.90;;;;;;5036573;28;20291;-63
2022/01/29 02:31:22;;;;;;;19.33;4.57;;;4.20;99.90;;;;;;5036724;28;20590;-64
2022/01/29 02:33:48;;;;;;;8.70;3.10;;;4.10;99.90;;;;;;5039164;28;20784;-63
2022/01/29 02:36:13;;;;;;;6.97;2.37;;;4.20;99.90;;;;;;5040215;28;20189;-65
2022/01/29 02:38:39;;;;;;;3.47;1.77;;;4.20;99.90;;;;;;5038200;28;20542;-63
2022/01/29 02:41:06;;;;;;;15.20;2.73;;;4.10;99.90;;;;;;5037584;28;20182;-64
2022/01/29 02:43:47;;;;;;;6.20;2.17;;;4.20;99.90;;;;;;5039458;28;20259;-63
2022/01/29 02:48:43;;;;;;;11.63;3.30;;;4.20;99.90;;;;;;5038014;28;20196;-63
2022/01/29 02:51:09;;;;;;;6.80;2.50;;;4.10;99.90;;;;;;5038565;28;20189;-63
2022/01/29 02:53:35;;;;;;;13.57;2.70;;;4.20;99.90;;;;;;5040691;28;20187;-65
2022/01/29 02:56:01;;;;;;;10.53;3.00;;;4.10;99.90;;;;;;5038219;28;20180;-64
2022/01/29 02:58:26;;;;;;;4.80;1.97;;;4.20;99.90;;;;;;5042615;28;20187;-63
2022/01/29 03:00:52;;;;;;;6.33;2.37;;;4.20;99.90;;;;;;5040651;28;20193;-65
2022/01/29 03:03:18;;;;;;;8.53;1.83;;;4.20;99.90;;;;;;5037299;28;20212;-63
2022/01/29 03:05:44;;;;;;;6.03;2.07;;;4.30;99.90;;;;;;5041050;28;20200;-64
2022/01/29 03:08:09;;;;;;;10.93;2.60;;;4.30;99.90;;;;;;5040262;28;20682;-63
2022/01/29 03:10:35;;;;;;;5.23;2.10;;;4.40;99.90;;;;;;5042330;28;20240;-62
2022/01/29 03:13:01;;;;;;;5.03;2.27;;;4.40;99.90;;;;;;5037515;28;20175;-63
2022/01/29 03:15:27;;;;;;;7.07;2.50;;;4.40;99.90;;;;;;5041189;28;20203;-68
2022/01/29 03:17:52;;;;;;;8.40;2.90;;;4.50;99.90;;;;;;5038846;28;20190;-63
2022/01/29 03:20:18;;;;;;;12.90;3.17;;;4.50;99.90;;;;;;5038111;28;20194;-62
2022/01/29 03:22:44;;;;;;;6.00;2.43;;;4.50;99.90;;;;;;5039602;28;20268;-65
2022/01/29 03:25:10;;;;;;;9.20;2.10;;;4.50;99.90;;;;;;5043039;28;20180;-63
2022/01/29 03:27:35;;;;;;;8.67;2.73;;;4.50;99.90;;;;;;5037617;28;20234;-65
2022/01/29 03:30:05;;;;;;;8.80;2.37;;;4.50;99.90;;;;;;5043011;28;20203;-63
2022/01/29 03:32:32;;;;;;;7.40;2.03;;;4.40;99.90;;;;;;5039249;28;20188;-63
2022/01/29 03:34:57;;;;;;;9.13;2.67;;;4.50;99.90;;;;;;5035417;28;20620;-64
2022/01/29 03:37:23;;;;;;;4.90;2.20;;;4.50;99.90;;;;;;5041551;28;20263;-64
2022/01/29 03:39:49;;;;;;;10.87;2.60;;;4.60;99.90;;;;;;5038588;28;20671;-66
2022/01/29 03:42:15;;;;;;;5.67;2.30;;;4.50;99.90;;;;;;5038477;28;20197;-63
2022/01/29 03:44:42;;;;;;;7.23;2.07;;;4.60;99.90;;;;;;5036189;28;20265;-64
2022/01/29 03:47:08;;;;;;;9.57;2.27;;;4.60;99.90;;;;;;5038217;28;20218;-64
2022/01/29 03:49:33;;;;;;;6.33;2.57;;;4.60;99.90;;;;;;5039860;28;21130;-63
2022/01/29 03:51:59;;;;;;;6.47;2.50;;;4.70;99.90;;;;;;5044213;28;20234;-64
2022/01/29 03:54:25;;;;;;;9.87;2.93;;;4.60;99.90;;;;;;5043252;28;20196;-63
2022/01/29 03:56:50;;;;;;;8.27;2.43;;;4.60;99.90;;;;;;5041288;28;20627;-63
2022/01/29 03:59:16;;;;;;;4.50;1.80;;;4.70;99.90;;;;;;5043826;28;20195;-64
2022/01/29 04:01:41;;;;;;;9.63;2.73;;;4.70;99.90;;;;;;5044257;28;20181;-64
2022/01/29 04:04:07;;;;;;;7.10;1.93;;;4.80;99.90;;;;;;5044524;28;20199;-63
2022/01/29 04:06:33;;;;;;;6.53;2.37;;;4.70;99.90;;;;;;5042845;28;20567;-63
2022/01/29 04:09:02;;;;;;;9.20;2.70;;;4.70;99.90;;;;;;5047039;28;20273;-64
2022/01/29 04:11:29;;;;;;;10.37;2.70;;;4.80;99.90;;;;;;5040082;28;20204;-65
2022/01/29 04:13:55;;;;;;;2.57;1.70;;;4.80;99.90;;;;;;5039691;28;20639;-64
2022/01/29 04:16:20;;;;;;;4.63;2.30;;;4.80;99.90;;;;;;5049852;28;20593;-63
2022/01/29 04:18:46;;;;;;;4.40;2.17;;;4.80;99.90;;;;;;5040124;28;20182;-63
2022/01/29 04:21:12;;;;;;;7.80;2.63;;;4.80;99.90;;;;;;5039071;28;20208;-64
2022/01/29 04:23:37;;;;;;;6.90;2.47;;;5.00;99.90;;;;;;5041684;28;20179;-65
2022/01/29 04:26:05;;;;;;;6.07;2.60;;;4.80;99.90;;;;;;5041082;28;20201;-63
2022/01/29 04:28:36;;;;;;;4.80;3.17;;;4.90;99.90;;;;;;5041180;28;20296;-63
2022/01/29 04:31:08;;;;;;;4.30;2.13;;;4.90;99.90;;;;;;5045799;28;20665;-63
2022/01/29 04:33:33;;;;;;;7.10;2.40;;;4.80;99.90;;;;;;5040395;28;20185;-63
2022/01/29 04:36:01;;;;;;;6.00;2.43;;;4.90;99.90;;;;;;5038765;28;20203;-63
2022/01/29 04:38:28;;;;;;;5.23;2.50;;;4.90;99.90;;;;;;5039040;28;20234;-65
2022/01/29 04:40:55;;;;;;;7.37;2.73;;;4.90;99.90;;;;;;5040473;28;20195;-63
2022/01/29 04:43:21;;;;;;;5.30;2.73;;;4.90;99.90;;;;;;5041430;28;20181;-63
2022/01/29 04:45:47;;;;;;;9.77;2.60;;;5.00;99.90;;;;;;5040517;28;20243;-63
2022/01/29 04:48:13;;;;;;;9.30;3.00;;;5.00;99.90;;;;;;5041008;28;20248;-64
2022/01/29 04:50:39;;;;;;;13.83;2.83;;;4.90;99.90;;;;;;5038864;28;20660;-63
2022/01/29 04:53:08;;;;;;;3.63;2.43;;;5.00;99.90;;;;;;5038820;28;20650;-63
2022/01/29 04:55:34;;;;;;;6.77;2.63;;;5.00;99.90;;;;;;5038803;28;20188;-62
2022/01/29 04:58:00;;;;;;;3.27;2.10;;;4.90;99.90;;;;;;5042362;28;20745;-62
2022/01/29 05:00:26;;;;;;;6.07;2.73;;;4.90;99.90;;;;;;5037168;28;20200;-63
2022/01/29 05:02:53;;;;;;;4.27;2.47;;;5.00;99.90;;;;;;5040981;28;20200;-63
2022/01/29 05:05:20;;;;;;;5.47;2.50;;;5.00;99.90;;;;;;5041788;28;20181;-63
2022/01/29 05:07:46;;;;;;;8.53;3.53;;;5.10;99.90;;;;;;5042184;28;20250;-63
2022/01/29 05:10:12;;;;;;;6.10;3.17;;;5.10;99.90;;;;;;5040285;28;20638;-63
2022/01/29 05:12:53;;;;;;;7.10;3.00;;;5.00;99.90;;;;;;5041889;28;20628;-67
2022/01/29 05:28:47;;;;;;;5.77;3.60;;;5.00;99.90;;;;;;5042865;28;20270;-65
2022/01/29 05:31:12;;;;;;;4.63;3.33;;;5.00;99.90;;;;;;5039828;28;20211;-64
2022/01/29 05:33:38;;;;;;;6.63;3.70;;;5.00;99.90;;;;;;5041008;28;20194;-63
2022/01/29 05:36:04;;;;;;;9.47;4.80;;;5.10;99.90;;;;;;5042646;28;20197;-63
2022/01/29 05:38:29;;;;;;;6.97;4.23;;;5.10;99.90;;;;;;5038727;28;20242;-64
2022/01/29 05:40:55;;;;;;;6.57;3.77;;;5.10;99.90;;;;;;5041530;28;20301;-66
2022/01/29 05:43:22;;;;;;;5.93;3.57;;;5.10;99.90;;;;;;5039673;28;20588;-65
2022/01/29 05:45:48;;;;;;;6.60;4.27;;;5.10;99.90;;;;;;5039498;28;20210;-63
2022/01/29 05:48:13;;;;;;;12.17;4.00;;;5.10;99.90;;;;;;5041074;28;20243;-63
2022/01/29 05:50:39;;;;;;;14.40;5.83;;;5.10;99.90;;;;;;5042069;28;20234;-63
2022/01/29 05:53:05;;;;;;;12.23;4.57;;;5.00;99.90;;;;;;5039570;28;20192;-64
2022/01/29 05:55:30;;;;;;;5.67;3.23;;;5.10;99.90;;;;;;5041343;28;20184;-64
2022/01/29 05:57:56;;;;;;;10.10;3.33;;;5.20;99.90;;;;;;5042849;28;20291;-63
2022/01/29 06:00:22;;;;;;;6.60;3.50;;;5.20;99.90;;;;;;5039825;28;20216;-64
2022/01/29 06:03:01;;;;;;;5.60;3.63;;;5.20;99.90;;;;;;5039125;28;20177;-64
2022/01/29 06:05:27;;;;;;;8.70;4.57;;;5.20;99.90;;;;;;5039257;28;20179;-64
2022/01/29 06:07:52;;;;;;;7.10;3.70;;;5.20;99.90;;;;;;5039905;28;20592;-63
2022/01/29 06:10:18;;;;;;;6.70;4.53;;;5.20;99.90;;;;;;5043744;28;20520;-63
2022/01/29 06:12:43;;;;;;;8.20;4.73;;;5.30;99.90;;;;;;5045320;28;20357;-66
2022/01/29 06:15:11;;;;;;;9.53;4.50;;;5.30;99.90;;;;;;5053107;28;20188;-64
2022/01/29 06:17:38;;;;;;;5.97;3.77;;;5.20;99.90;;;;;;5049398;28;20183;-65
2022/01/29 06:20:04;;;;;;;8.70;5.67;;;5.30;99.90;;;;;;5050879;28;20185;-66
2022/01/29 06:22:30;;;;;;;6.70;4.77;;;5.30;99.90;;;;;;5041198;28;20487;-63
2022/01/29 06:24:55;;;;;;;11.97;6.03;;;5.30;99.90;;;;;;5039870;28;20191;-64
2022/01/29 06:27:21;;;;;;;7.40;4.27;;;5.20;99.90;;;;;;5041616;28;20350;-64
2022/01/29 06:29:46;;;;;;;5.70;4.37;;;5.30;99.90;;;;;;5039468;28;20184;-62
2022/01/29 06:32:12;;;;;;;9.63;4.50;;;5.30;99.90;;;;;;5042858;28;20626;-65
2022/01/29 06:34:38;;;;;;;7.63;4.17;;;5.40;99.90;;;;;;5040665;28;20191;-62
2022/01/29 06:37:03;;;;;;;5.80;4.03;;;5.30;99.90;;;;;;5038566;28;20234;-63
2022/01/29 06:39:29;;;;;;;8.27;4.87;;;5.40;99.90;;;;;;5041470;28;20225;-64
2022/01/29 06:41:54;;;;;;;10.27;4.63;;;5.50;99.90;;;;;;5043220;28;20191;-63
2022/01/29 06:44:20;;;;;;;8.17;4.37;;;5.40;99.90;;;;;;5036425;28;20203;-63
2022/01/29 06:46:46;;;;;;;9.00;3.80;;;5.40;99.90;;;;;;5039071;28;20227;-64
2022/01/29 06:49:11;;;;;;;8.63;5.23;;;5.40;99.90;;;;;;5036428;28;20640;-64
2022/01/29 06:51:37;;;;;;;8.20;3.90;;;5.40;99.90;;;;;;5036071;28;20629;-65
2022/01/29 06:54:02;;;;;;;6.53;4.23;;;5.40;99.90;;;;;;5035039;28;20224;-65
2022/01/29 06:56:28;;;;;;;13.50;4.60;;;5.50;99.90;;;;;;5029687;28;20197;-63
2022/01/29 06:58:54;;;;;;;11.30;4.20;;;5.50;99.90;;;;;;5040600;28;20183;-63
2022/01/29 07:01:19;;;;;;;12.67;4.80;;;5.50;99.90;;;;;;5034711;28;20262;-62
2022/01/29 07:03:45;;;;;;;8.53;4.03;;;5.40;99.90;;;;;;5036440;28;20183;-62
2022/01/29 07:06:10;;;;;;;9.13;4.37;;;5.50;99.90;;;;;;5036969;28;20706;-63
2022/01/29 07:08:38;;;;;;;6.17;3.90;;;5.50;99.90;;;;;;5035468;28;20298;-63
2022/01/29 07:11:04;;;;;;;10.00;5.90;;;5.50;99.90;;;;;;5036368;28;20950;-63
2022/01/29 07:13:31;;;;;;;9.33;5.00;;;5.50;99.90;;;;;;5039535;28;20266;-63
2022/01/29 07:15:56;;;;;;;8.23;4.77;;;5.60;99.90;;;;;;5040998;28;20185;-64
2022/01/29 07:18:22;;;;;;;6.83;4.50;;;5.60;99.90;;;;;;5037792;28;20291;-64
2022/01/29 07:20:48;;;;;;;6.73;4.63;;;5.60;99.90;;;;;;5037454;28;20183;-63
2022/01/29 07:23:14;;;;;;;7.83;3.93;;;5.60;99.90;;;;;;5037185;28;20192;-65
2022/01/29 07:25:39;;;;;;;7.57;4.30;;;5.60;99.90;;;;;;5040152;28;20189;-67
2022/01/29 07:28:05;;;;;;;5.50;3.70;;;5.70;99.90;;;;;;5038750;28;20216;-63
2022/01/29 07:30:31;;;;;;;7.67;4.07;;;5.60;99.90;;;;;;5038458;28;20178;-65
2022/01/29 07:32:56;;;;;;;5.60;3.50;;;5.70;99.90;;;;;;5040332;28;20609;-63
2022/01/29 07:35:22;;;;;;;5.23;3.57;;;5.60;99.90;;;;;;5041584;28;20281;-65
2022/01/29 07:37:47;;;;;;;7.20;4.20;;;5.60;99.90;;;;;;5041007;28;20281;-63
2022/01/29 07:40:13;;;;;;;6.57;4.40;;;5.60;99.90;;;;;;5039883;28;20188;-62
2022/01/29 07:42:39;;;;;;;9.97;4.00;;;5.60;99.90;;;;;;5034735;28;20589;-66
2022/01/29 07:45:05;;;;;;;11.23;4.93;;;5.60;99.90;;;;;;5039423;28;20187;-63
2022/01/29 07:47:33;;;;;;;7.13;4.50;;;5.60;99.90;;;;;;5041995;28;20540;-63
2022/01/29 07:49:58;;;;;;;8.13;4.30;;;5.50;99.90;;;;;;5041645;28;20199;-63
2022/01/29 07:52:24;;;;;;;6.93;4.47;;;5.50;99.90;;;;;;5042211;28;20633;-62
2022/01/29 07:54:50;;;;;;;8.73;4.37;;;5.50;99.90;;;;;;5043341;28;20271;-63
2022/01/29 07:57:15;;;;;;;6.17;3.97;;;5.50;99.90;;;;;;5041364;28;20195;-64
2022/01/29 07:59:41;;;;;;;9.43;5.17;;;5.50;99.90;;;;;;5037082;28;20198;-64
2022/01/29 08:02:07;;;;;;;7.33;4.37;;;5.50;99.90;;;;;;5036339;28;20222;-63
2022/01/29 08:04:32;;;;;;;8.67;4.13;;;5.60;99.90;;;;;;5042686;28;20255;-63
2022/01/29 08:06:58;;;;;;;7.20;4.57;;;5.60;99.90;;;;;;5042563;28;20218;-65
2022/01/29 08:09:24;;;;;;;8.50;4.17;;;5.50;99.90;;;;;;5043870;28;20197;-63
2022/01/29 08:11:49;;;;;;;6.43;4.03;;;5.50;99.90;;;;;;5041747;28;20325;-63
2022/01/29 08:14:15;;;;;;;6.47;4.03;;;5.40;99.90;;;;;;5042869;28;20203;-62
2022/01/29 08:16:40;;;;;;;9.23;4.47;;;5.40;99.90;;;;;;5042408;28;20202;-65
2022/01/29 08:19:06;;;;;;;6.47;3.93;;;5.40;99.90;;;;;;5046103;28;20186;-69
2022/01/29 08:21:32;;;;;;;6.00;3.97;;;5.40;99.90;;;;;;5043700;28;20241;-67
2022/01/29 08:23:57;;;;;;;6.57;4.07;;;5.40;99.90;;;;;;5045585;28;20187;-64
2022/01/29 08:26:23;;;;;;;8.33;4.07;;;5.40;99.90;;;;;;5038964;28;20172;-63
2022/01/29 08:28:48;;;;;;;6.80;3.83;;;5.40;99.90;;;;;;5037362;28;20662;-62
2022/01/29 08:31:14;;;;;;;6.13;3.50;;;5.30;99.90;;;;;;5041758;28;20605;-63
2022/01/29 08:33:39;;;;;;;9.00;3.83;;;5.40;99.90;;;;;;5037878;28;20191;-69
2022/01/29 08:36:07;;;;;;;7.50;4.13;;;5.30;99.90;;;;;;5042903;28;20188;-64
2022/01/29 08:38:33;;;;;;;6.40;4.63;;;5.30;99.90;;;;;;5042445;28;20255;-64
2022/01/29 08:40:59;;;;;;;5.47;4.07;;;5.30;99.90;;;;;;5041300;28;20193;-65
2022/01/29 08:43:25;;;;;;;5.17;3.43;;;5.30;99.90;;;;;;5042666;28;20191;-62
2022/01/29 08:45:51;;;;;;;6.57;3.73;;;5.40;99.90;;;;;;5041739;28;20510;-65
2022/01/29 08:48:18;;;;;;;5.03;4.10;;;5.40;99.90;;;;;;5046152;28;20637;-64
2022/01/29 08:50:44;;;;;;;6.73;3.87;;;5.30;99.90;;;;;;5053411;28;20624;-64
2022/01/29 08:53:11;;;;;;;6.23;3.33;;;5.40;99.90;;;;;;5045604;28;20182;-63
2022/01/29 08:55:37;;;;;;;4.77;3.80;;;5.40;99.90;;;;;;5045236;28;20634;-65
2022/01/29 08:58:08;;;;;;;6.33;4.70;;;5.30;99.90;;;;;;5038664;28;20198;-62
2022/01/29 09:00:35;;;;;;;9.07;4.80;;;5.30;99.90;;;;;;5031233;28;20242;-64
2022/01/29 09:03:01;;;;;;;5.93;4.40;;;5.30;99.90;;;;;;5037488;28;20181;-62
2022/01/29 09:05:27;;;;;;;5.57;3.73;;;5.30;99.90;;;;;;5038804;28;20216;-63
2022/01/29 09:07:53;;;;;;;4.93;3.37;;;5.30;99.90;;;;;;5037433;28;20255;-64
2022/01/29 09:10:18;;;;;;;5.77;3.40;;;5.30;99.90;;;;;;5041718;28;20197;-63
2022/01/29 09:12:44;;;;;;;7.37;3.80;;;5.30;99.90;;;;;;5035983;28;20554;-63
2022/01/29 09:15:10;;;;;;;4.37;3.20;;;5.30;99.90;;;;;;5040230;28;20279;-63
2022/01/29 09:17:39;;;;;;;5.40;3.27;;;5.40;99.90;;;;;;5037865;28;20198;-65
2022/01/29 09:20:06;;;;;;;4.83;3.03;;;5.30;99.90;;;;;;5038417;28;20183;-62
2022/01/29 09:22:32;;;;;;;4.90;3.70;;;5.20;99.90;;;;;;5042951;28;20184;-63
2022/01/29 09:24:57;;;;;;;5.27;3.40;;;5.20;99.90;;;;;;5040302;28;20252;-63
2022/01/29 09:27:23;;;;;;;5.50;3.77;;;5.40;99.90;;;;;;5036453;28;20240;-63
2022/01/29 09:29:48;;;;;;;4.07;2.93;;;5.40;99.90;;;;;;5037211;28;20202;-62
2022/01/29 09:32:14;;;;;;;5.47;3.30;;;5.30;99.90;;;;;;5041386;28;20217;-64
2022/01/29 09:34:39;;;;;;;7.70;3.90;;;5.30;99.90;;;;;;5037689;28;20200;-62
2022/01/29 09:37:05;;;;;;;6.03;4.00;;;5.30;99.90;;;;;;5038149;28;20658;-61
2022/01/29 09:39:31;;;;;;;6.23;4.00;;;5.40;99.90;;;;;;5040520;28;20204;-63
2022/01/29 09:41:57;;;;;;;6.30;3.97;;;5.30;99.90;;;;;;5037916;28;20231;-69
2022/01/29 09:44:22;;;;;;;4.73;3.00;;;5.30;99.90;;;;;;5035953;28;20185;-63
2022/01/29 09:46:51;;;;;;;5.10;3.43;;;5.30;99.90;;;;;;5037173;28;20298;-63
2022/01/29 09:49:17;;;;;;;4.87;3.03;;;5.40;99.90;;;;;;5042926;28;20223;-64
2022/01/29 09:51:43;;;;;;;4.87;3.03;;;5.40;99.90;;;;;;5042383;28;20653;-63
2022/01/29 09:54:09;;;;;;;7.77;2.93;;;5.30;99.90;;;;;;5040839;28;20179;-63
2022/01/29 09:56:35;;;;;;;5.50;2.60;;;5.40;99.90;;;;;;5037812;28;20184;-62
2022/01/29 09:59:01;;;;;;;5.83;3.43;;;5.40;99.90;;;;;;5036893;28;20275;-64
2022/01/29 10:01:27;;;;;;;5.23;3.33;;;5.40;99.90;;;;;;5039953;28;20313;-63
2022/01/29 10:04:00;;;;;;;6.20;3.70;;;5.40;99.90;;;;;;5037930;28;20596;-64
2022/01/29 10:06:26;;;;;;;8.60;4.80;;;5.60;99.90;;;;;;5040712;28;20625;-63
2022/01/29 10:08:51;;;;;;;4.97;3.03;;;5.50;99.90;;;;;;5037490;28;20232;-65
2022/01/29 10:11:23;;;;;;;4.93;2.83;;;5.50;99.90;;;;;;5035815;28;20584;-63
2022/01/29 10:13:49;;;;;;;5.27;3.27;;;5.60;99.90;;;;;;5036439;28;20182;-66
2022/01/29 10:16:23;;;;;;;3.63;2.77;;;5.50;99.90;;;;;;5036655;28;20203;-64
2022/01/29 10:18:59;;;;;;;5.90;2.63;;;5.50;99.90;;;;;;5040052;28;20195;-62
2022/01/29 10:21:28;;;;;;;4.53;3.30;;;5.50;99.90;;;;;;5036446;28;20260;-64
2022/01/29 10:24:04;;;;;;;4.23;3.30;;;5.70;99.90;;;;;;5037885;28;20322;-64
2022/01/29 10:26:35;;;;;;;4.33;3.23;;;5.60;99.90;;;;;;5030305;28;20284;-62
2022/01/29 10:29:03;;;;;;;3.87;2.90;;;5.90;99.90;;;;;;5036240;28;20265;-63
2022/01/29 10:32:02;;;;;;;4.87;2.97;;;5.70;99.90;;;;;;5034174;28;20196;-63
2022/01/29 10:34:31;;;;;;;5.53;3.33;;;5.70;99.90;;;;;;5020404;28;20275;-64
2022/01/29 10:37:15;;;;;;;5.40;3.43;;;5.70;99.90;;;;;;5035574;28;20199;-66
2022/01/29 10:40:00;;;;;;;6.47;3.90;;;5.70;99.90;;;;;;5043029;28;20181;-63
2022/01/29 10:42:37;;;;;;;3.50;2.70;;;5.70;99.90;;;;;;5043342;28;20183;-64
2022/01/29 10:45:05;;;;;;;3.37;2.87;;;5.80;99.90;;;;;;5041295;28;20180;-63
2022/01/29 10:47:51;;;;;;;4.73;3.30;;;5.90;99.90;;;;;;5036631;28;20354;-63
2022/01/29 10:50:16;;;;;;;5.90;3.33;;;5.90;99.90;;;;;;5038455;28;20178;-65
2022/01/29 10:52:42;;;;;;;4.20;2.60;;;5.90;99.90;;;;;;5037848;28;20211;-64
2022/01/29 10:55:08;;;;;;;5.70;3.33;;;5.90;99.90;;;;;;5039580;28;20172;-64
2022/01/29 10:57:39;;;;;;;7.10;3.97;;;6.00;99.90;;;;;;5039292;28;20187;-62
2022/01/29 11:00:07;;;;;;;4.83;3.37;;;6.00;99.90;;;;;;5037428;28;20225;-65
2022/01/29 11:02:33;;;;;;;7.90;3.60;;;6.00;99.90;;;;;;5035136;28;20278;-66
2022/01/29 11:05:04;;;;;;;5.93;3.43;;;6.10;99.90;;;;;;5046380;28;20208;-66
2022/01/29 11:07:30;;;;;;;6.47;3.60;;;6.00;99.90;;;;;;5043057;28;20215;-64
2022/01/29 11:09:59;;;;;;;5.07;3.47;;;6.10;99.90;;;;;;5047063;28;20199;-64
2022/01/29 11:12:27;;;;;;;6.57;4.33;;;6.10;99.90;;;;;;5049146;28;20172;-63
2022/01/29 11:14:55;;;;;;;4.20;2.93;;;6.20;99.90;;;;;;5039403;28;20183;-63
2022/01/29 11:17:23;;;;;;;4.40;2.83;;;6.20;99.90;;;;;;5043200;28;20565;-64
2022/01/29 11:19:48;;;;;;;4.87;2.77;;;6.20;99.90;;;;;;5041969;28;20232;-63
2022/01/29 11:22:22;;;;;;;7.23;3.47;;;6.20;99.90;;;;;;5043732;28;20238;-63
2022/01/29 11:24:54;;;;;;;6.10;2.77;;;6.20;99.90;;;;;;5043538;28;20190;-63
2022/01/29 11:27:38;;;;;;;6.43;3.27;;;6.30;99.90;;;;;;5037705;28;20212;-64
2022/01/29 11:30:10;;;;;;;4.57;3.17;;;6.30;99.90;;;;;;5041951;28;20578;-62
2022/01/29 11:32:44;;;;;;;6.10;3.17;;;6.40;99.90;;;;;;5047833;28;20264;-65
2022/01/29 11:35:16;;;;;;;5.60;2.90;;;6.40;99.90;;;;;;5034521;28;20196;-63
2022/01/29 11:38:02;;;;;;;4.73;3.10;;;6.50;99.90;;;;;;5038711;28;20711;-68
2022/01/29 11:40:58;;;;;;;3.87;2.93;;;6.50;99.90;;;;;;5041652;28;20187;-65
2022/01/29 11:43:34;;;;;;;4.87;3.03;;;6.50;99.90;;;;;;5034387;28;20201;-64
2022/01/29 11:46:12;;;;;;;3.60;2.67;;;6.50;99.90;;;;;;5040527;28;20177;-62
2022/01/29 11:48:51;;;;;;;3.97;2.57;;;6.60;99.90;;;;;;5039574;28;20208;-64
2022/01/29 11:51:42;;;;;;;5.30;3.07;;;6.80;99.90;;;;;;5035367;28;20195;-63
2022/01/29 11:54:09;;;;;;;3.10;2.50;;;6.80;99.90;;;;;;5033419;28;20192;-63
2022/01/29 11:56:44;;;;;;;5.37;2.83;;;6.80;99.90;;;;;;5037774;28;20280;-63
2022/01/29 11:59:24;;;;;;;4.93;2.93;;;6.70;99.90;;;;;;5039605;28;20634;-64
2022/01/29 12:01:52;;;;;;;3.53;2.40;;;6.70;99.90;;;;;;5040132;28;20653;-66
2022/01/29 12:04:20;;;;;;;3.73;2.63;;;6.60;99.90;;;;;;5043028;28;20228;-65
2022/01/29 12:07:08;;;;;;;5.33;2.37;;;6.80;99.90;;;;;;5042990;28;20224;-66
2022/01/29 12:09:47;;;;;;;5.33;3.07;;;6.80;99.90;;;;;;5044823;28;20178;-63
2022/01/29 12:12:24;;;;;;;3.40;2.30;;;6.80;99.90;;;;;;5044266;28;20186;-64
2022/01/29 12:14:55;;;;;;;4.43;2.93;;;6.70;99.90;;;;;;5042108;28;20556;-64
2022/01/29 12:17:45;;;;;;;5.57;2.80;;;6.90;99.90;;;;;;5044209;28;20187;-64
2022/01/29 12:20:18;;;;;;;3.03;2.00;;;6.90;99.90;;;;;;5043030;28;20176;-64
2022/01/29 12:22:45;;;;;;;2.67;2.40;;;6.90;99.90;;;;;;5039331;28;20195;-64
2022/01/29 12:25:15;;;;;;;4.63;2.60;;;6.90;99.90;;;;;;5038159;28;20327;-63
2022/01/29 12:28:00;;;;;;;4.17;2.87;;;7.00;99.90;;;;;;5041161;28;20306;-64
2022/01/29 12:30:28;;;;;;;2.77;2.13;;;7.00;99.90;;;;;;5039887;28;20352;-63
2022/01/29 12:33:15;;;;;;;2.43;2.10;;;7.00;99.90;;;;;;5042188;28;20188;-63
2022/01/29 12:35:43;;;;;;;2.97;2.43;;;7.00;99.90;;;;;;5043044;28;20198;-64
2022/01/29 12:38:11;;;;;;;3.53;2.20;;;7.10;99.90;;;;;;5041205;28;20234;-66
2022/01/29 12:40:49;;;;;;;3.47;2.53;;;7.00;99.90;;;;;;5044296;28;20561;-66
2022/01/29 12:43:24;;;;;;;2.00;1.77;;;7.00;99.90;;;;;;5041928;28;20181;-64
2022/01/29 12:45:51;;;;;;;4.03;2.87;;;7.00;99.90;;;;;;5040222;28;20179;-64
2022/01/29 12:48:18;;;;;;;1.97;1.60;;;7.00;99.90;;;;;;5040118;28;20794;-63
2022/01/29 12:50:44;;;;;;;3.33;2.33;;;7.00;99.90;;;;;;5043011;28;20187;-64
2022/01/29 12:53:17;;;;;;;3.23;2.23;;;7.10;99.90;;;;;;5045223;28;20200;-65
2022/01/29 12:55:43;;;;;;;4.13;2.30;;;7.00;99.90;;;;;;5048241;28;20228;-65
2022/01/29 12:58:09;;;;;;;5.80;2.67;;;7.10;99.90;;;;;;5048578;28;20192;-63
2022/01/29 13:00:36;;;;;;;2.13;1.67;;;7.10;99.90;;;;;;5040146;28;20279;-62
2022/01/29 13:03:07;;;;;;;3.53;2.23;;;7.10;99.90;;;;;;5041878;28;20210;-63
2022/01/29 13:05:41;;;;;;;3.23;1.77;;;7.10;99.90;;;;;;5035803;28;20187;-64
2022/01/29 13:08:08;;;;;;;3.00;2.00;;;7.10;99.90;;;;;;5037946;28;20220;-64
2022/01/29 13:10:33;;;;;;;2.90;1.90;;;7.10;99.90;;;;;;5042213;28;20188;-64
2022/01/29 13:12:59;;;;;;;2.00;1.30;;;7.20;99.90;;;;;;5043956;28;20193;-65
2022/01/29 13:15:40;;;;;;;3.97;2.13;;;7.20;99.90;;;;;;5040176;28;20266;-63